createdAt,value
2022-08-02T00:02:14.889Z,19.70
2022-08-02T00:04:44.339Z,19.69
2022-08-02T00:07:15.276Z,19.66
2022-08-02T00:09:44.679Z,19.63
2022-08-02T00:12:14.264Z,19.56
2022-08-02T00:14:43.469Z,19.51
2022-08-02T00:17:12.662Z,19.46
2022-08-02T00:19:41.962Z,19.44
2022-08-02T00:22:11.443Z,19.42
2022-08-02T00:24:41.298Z,19.38
2022-08-02T00:27:10.512Z,19.32
2022-08-02T00:29:50.510Z,19.27
2022-08-02T00:32:23.733Z,19.23
2022-08-02T00:34:53.015Z,19.21
2022-08-02T00:37:22.375Z,19.21
2022-08-02T00:39:51.678Z,19.20
2022-08-02T00:42:20.967Z,19.22
2022-08-02T00:44:50.358Z,19.21
2022-08-02T00:47:20.012Z,19.19
2022-08-02T00:49:49.790Z,19.17
2022-08-02T00:52:18.931Z,19.18
2022-08-02T00:54:48.181Z,19.16
2022-08-02T00:57:17.480Z,19.17
2022-08-02T00:59:47.542Z,19.17
2022-08-02T01:02:17.337Z,19.17
2022-08-02T01:04:47.658Z,19.16
2022-08-02T01:07:17.563Z,19.15
2022-08-02T01:09:46.824Z,19.15
2022-08-02T01:12:16.404Z,19.11
2022-08-02T01:14:46.522Z,19.06
2022-08-02T01:17:15.800Z,19.05
2022-08-02T01:19:45.124Z,19.04
2022-08-02T01:22:15.682Z,19.01
2022-08-02T01:24:44.893Z,18.98
2022-08-02T01:27:14.274Z,18.97
2022-08-02T01:29:43.553Z,18.98
2022-08-02T01:32:13.273Z,18.97
2022-08-02T01:34:43.033Z,18.96
2022-08-02T01:37:12.287Z,18.95
2022-08-02T01:39:41.667Z,18.96
2022-08-02T01:42:10.951Z,18.97
2022-08-02T01:44:40.432Z,18.99
2022-08-02T01:47:09.739Z,19.00
2022-08-02T01:49:40.017Z,19.03
2022-08-02T01:52:26.782Z,19.02
2022-08-02T01:54:56.041Z,19.01
2022-08-02T01:57:25.318Z,18.99
2022-08-02T01:59:56.191Z,18.97
2022-08-02T02:02:28.882Z,18.95
2022-08-02T02:05:01.421Z,18.95
2022-08-02T02:07:30.714Z,18.94
2022-08-02T02:10:00.197Z,18.86
2022-08-02T02:12:29.489Z,18.86
2022-08-02T02:14:58.775Z,18.91
2022-08-02T02:17:50.637Z,18.83
2022-08-02T02:20:17.206Z,18.79
2022-08-02T02:22:48.413Z,18.77
2022-08-02T02:25:19.559Z,18.76
2022-08-02T02:28:00.167Z,18.78
2022-08-02T02:30:29.481Z,18.76
2022-08-02T02:32:58.751Z,18.70
2022-08-02T02:35:27.930Z,18.54
2022-08-02T02:37:57.191Z,18.51
2022-08-02T02:40:27.012Z,18.50
2022-08-02T02:42:56.449Z,18.53
2022-08-02T02:45:25.671Z,18.55
2022-08-02T02:47:54.995Z,18.57
2022-08-02T02:50:24.188Z,18.54
2022-08-02T02:52:53.494Z,18.52
2022-08-02T02:55:22.795Z,18.49
2022-08-02T02:57:52.075Z,18.48
2022-08-02T03:00:42.421Z,18.47
2022-08-02T03:03:11.808Z,18.47
2022-08-02T03:05:41.108Z,18.44
2022-08-02T03:08:10.327Z,18.42
2022-08-02T03:10:39.453Z,18.42
2022-08-02T03:13:08.936Z,18.42
2022-08-02T03:15:40.373Z,18.42
2022-08-02T03:18:09.617Z,18.43
2022-08-02T03:20:38.912Z,18.43
2022-08-02T03:23:08.091Z,18.42
2022-08-02T03:25:37.822Z,18.41
2022-08-02T03:28:07.247Z,18.42
2022-08-02T03:30:36.620Z,18.43
2022-08-02T03:33:07.022Z,18.42
2022-08-02T03:35:36.343Z,18.38
2022-08-02T03:38:06.147Z,18.37
2022-08-02T03:40:35.921Z,18.35
2022-08-02T03:43:05.264Z,18.33
2022-08-02T03:45:34.572Z,18.32
2022-08-02T03:48:05.410Z,18.33
2022-08-02T03:50:53.168Z,18.32
2022-08-02T03:53:23.297Z,18.32
2022-08-02T03:55:52.555Z,18.32
2022-08-02T03:58:25.072Z,18.31
2022-08-02T04:00:54.401Z,18.31
2022-08-02T04:03:23.677Z,18.31
2022-08-02T04:06:03.161Z,18.31
2022-08-02T04:08:38.371Z,18.32
2022-08-02T04:11:26.385Z,18.31
2022-08-02T04:13:56.992Z,18.33
2022-08-02T04:16:26.743Z,18.33
2022-08-02T04:18:55.861Z,18.33
2022-08-02T04:21:25.178Z,18.31
2022-08-02T04:23:54.496Z,18.29
2022-08-02T04:26:28.200Z,18.27
2022-08-02T04:28:58.256Z,18.22
2022-08-02T04:31:27.476Z,18.20
2022-08-02T04:33:56.760Z,18.19
2022-08-02T04:36:30.991Z,18.20
2022-08-02T04:39:01.391Z,18.28
2022-08-02T04:41:30.738Z,18.34
2022-08-02T04:44:02.518Z,18.38
2022-08-02T04:46:31.904Z,18.35
2022-08-02T04:49:01.155Z,18.36
2022-08-02T04:51:37.919Z,18.42
2022-08-02T04:54:09.916Z,18.47
2022-08-02T04:56:40.079Z,18.52
2022-08-02T04:59:09.391Z,18.53
2022-08-02T05:01:39.957Z,18.59
2022-08-02T05:04:09.213Z,18.67
2022-08-02T05:06:38.545Z,18.79
2022-08-02T05:09:07.807Z,18.82
2022-08-02T05:11:37.418Z,18.82
2022-08-02T05:14:07.962Z,18.77
2022-08-02T05:16:37.156Z,18.76
2022-08-02T05:19:06.464Z,18.74
2022-08-02T05:21:35.739Z,18.71
2022-08-02T05:24:04.955Z,18.67
2022-08-02T05:26:34.201Z,18.62
2022-08-02T05:29:03.940Z,18.57
2022-08-02T05:31:33.149Z,18.57
2022-08-02T05:34:02.549Z,18.59
2022-08-02T05:36:31.802Z,18.57
2022-08-02T05:39:05.063Z,18.58
2022-08-02T05:41:35.291Z,18.65
2022-08-02T05:44:04.496Z,18.70
2022-08-02T05:46:34.397Z,18.77
2022-08-02T05:49:05.383Z,18.82
2022-08-02T05:51:34.641Z,18.87
2022-08-02T05:54:03.940Z,18.94
2022-08-02T05:56:33.129Z,18.96
2022-08-02T05:59:02.401Z,19.06
2022-08-02T06:01:31.778Z,19.13
2022-08-02T06:04:01.808Z,19.18
2022-08-02T06:06:31.065Z,19.28
2022-08-02T06:09:01.282Z,19.36
2022-08-02T06:11:30.512Z,19.48
2022-08-02T06:13:59.711Z,19.61
2022-08-02T06:16:32.271Z,19.63
2022-08-02T06:19:02.720Z,19.70
2022-08-02T06:22:31.365Z,19.77
2022-08-02T06:24:21.252Z,19.80
2022-08-02T06:26:53.269Z,19.81
2022-08-02T06:29:23.268Z,19.86
2022-08-02T06:31:53.197Z,19.96
2022-08-02T06:34:22.584Z,20.10
2022-08-02T06:36:51.853Z,20.13
2022-08-02T06:39:21.063Z,20.25
2022-08-02T06:41:50.361Z,20.33
2022-08-02T06:47:15.197Z,20.42
2022-08-02T06:49:51.502Z,20.52
2022-08-02T06:52:27.827Z,20.58
2022-08-02T06:54:58.389Z,20.64
2022-08-02T06:57:27.656Z,20.70
2022-08-02T06:59:56.992Z,20.74
2022-08-02T07:02:26.236Z,20.78
2022-08-02T07:04:55.440Z,20.82
2022-08-02T07:07:24.776Z,20.87
2022-08-02T07:10:00.567Z,20.95
2022-08-02T07:12:32.057Z,21.08
2022-08-02T07:15:01.337Z,21.14
2022-08-02T07:17:30.736Z,21.12
2022-08-02T07:20:00.116Z,21.20
2022-08-02T07:22:29.420Z,21.32
2022-08-02T07:24:58.811Z,21.42
2022-08-02T07:27:28.667Z,21.54
2022-08-02T07:29:58.650Z,21.71
2022-08-02T07:32:27.914Z,21.75
2022-08-02T07:34:57.736Z,21.70
2022-08-02T07:37:53.472Z,21.72
2022-08-02T07:40:19.513Z,21.79
2022-08-02T07:42:52.783Z,21.81
2022-08-02T07:45:22.052Z,21.83
2022-08-02T07:47:51.433Z,21.89
2022-08-02T07:50:20.686Z,21.95
2022-08-02T07:52:50.034Z,21.98
2022-08-02T07:55:39.435Z,22.05
2022-08-02T07:58:12.567Z,22.17
2022-08-02T08:00:45.081Z,22.18
2022-08-02T08:03:14.421Z,22.20
2022-08-02T08:05:43.752Z,22.19
2022-08-02T08:08:17.346Z,22.25
2022-08-02T08:10:47.370Z,22.30
2022-08-02T08:13:16.687Z,22.38
2022-08-02T08:15:52.273Z,22.51
2022-08-02T08:18:23.012Z,22.56
2022-08-02T08:20:53.006Z,22.59
2022-08-02T08:23:22.451Z,22.61
2022-08-02T08:25:51.611Z,22.66
2022-08-02T08:28:20.873Z,22.66
2022-08-02T08:30:50.142Z,22.73
2022-08-02T08:33:19.300Z,22.72
2022-08-02T08:35:49.531Z,22.75
2022-08-02T08:38:19.578Z,22.84
2022-08-02T08:40:48.878Z,22.91
2022-08-02T08:43:18.230Z,22.92
2022-08-02T08:45:56.123Z,23.01
2022-08-02T08:48:31.192Z,23.10
2022-08-02T08:51:01.411Z,23.15
2022-08-02T08:53:36.627Z,23.16
2022-08-02T08:56:06.916Z,23.23
2022-08-02T08:58:36.151Z,23.32
2022-08-02T09:01:05.430Z,23.34
2022-08-02T09:03:34.733Z,23.34
2022-08-02T09:06:05.070Z,23.30
2022-08-02T09:08:34.862Z,23.27
2022-08-02T09:11:04.300Z,23.30
2022-08-02T09:13:45.159Z,23.34
2022-08-02T09:16:15.783Z,23.39
2022-08-02T09:18:46.691Z,23.42
2022-08-02T09:21:17.102Z,23.48
2022-08-02T09:23:46.993Z,23.58
2022-08-02T09:26:16.316Z,23.58
2022-08-02T09:28:46.710Z,23.49
2022-08-02T09:31:16.077Z,23.52
2022-08-02T09:33:45.449Z,23.62
2022-08-02T09:36:15.483Z,23.71
2022-08-02T09:38:44.722Z,23.82
2022-08-02T09:41:14.019Z,23.81
2022-08-02T09:43:57.928Z,23.87
2022-08-02T09:46:36.847Z,24.01
2022-08-02T09:49:06.048Z,24.10
2022-08-02T09:51:36.612Z,24.15
2022-08-02T09:54:08.856Z,24.07
2022-08-02T09:56:38.550Z,23.99
2022-08-02T09:59:08.328Z,23.98
2022-08-02T10:01:39.019Z,24.00
2022-08-02T10:04:17.348Z,24.04
2022-08-02T10:06:51.551Z,24.08
2022-08-02T10:09:21.449Z,24.14
2022-08-02T10:11:50.843Z,24.25
2022-08-02T10:14:21.286Z,24.35
2022-08-02T10:16:50.599Z,24.49
2022-08-02T10:20:02.332Z,24.58
2022-08-02T10:22:10.475Z,24.80
2022-08-02T10:24:47.510Z,24.96
2022-08-02T10:27:17.822Z,24.96
2022-08-02T10:29:55.284Z,24.91
2022-08-02T10:32:25.661Z,24.82
2022-08-02T10:34:55.948Z,24.79
2022-08-02T10:37:26.920Z,24.89
2022-08-02T10:39:56.402Z,24.88
2022-08-02T10:42:25.731Z,24.72
2022-08-02T10:44:56.228Z,24.75
2022-08-02T10:47:25.521Z,24.82
2022-08-02T10:49:54.847Z,24.76
2022-08-02T10:52:24.147Z,24.71
2022-08-02T10:54:53.494Z,24.80
2022-08-02T10:57:25.908Z,24.89
2022-08-02T10:59:55.330Z,25.03
2022-08-02T11:02:24.715Z,25.29
2022-08-02T11:04:54.005Z,25.44
2022-08-02T11:07:24.070Z,25.64
2022-08-02T11:09:53.360Z,25.71
2022-08-02T11:12:22.641Z,25.84
2022-08-02T11:14:55.113Z,25.90
2022-08-02T11:17:25.670Z,25.77
2022-08-02T11:19:54.950Z,25.59
2022-08-02T11:22:25.959Z,25.63
2022-08-02T11:24:58.048Z,25.77
2022-08-02T11:27:27.312Z,25.64
2022-08-02T11:29:56.652Z,25.53
2022-08-02T11:32:31.037Z,25.51
2022-08-02T11:35:01.340Z,25.41
2022-08-02T11:37:30.599Z,25.30
2022-08-02T11:39:59.953Z,25.26
2022-08-02T11:42:29.274Z,25.29
2022-08-02T11:44:58.641Z,25.53
2022-08-02T11:47:27.867Z,25.81
2022-08-02T11:49:57.181Z,26.05
2022-08-02T11:52:26.452Z,26.34
2022-08-02T11:54:55.660Z,26.65
2022-08-02T11:57:24.902Z,26.90
2022-08-02T11:59:54.069Z,27.17
2022-08-02T12:02:23.588Z,27.30
2022-08-02T12:04:52.841Z,27.18
2022-08-02T12:07:34.623Z,27.15
2022-08-02T12:10:05.944Z,27.13
2022-08-02T12:12:35.281Z,27.16
2022-08-02T12:15:04.541Z,27.15
2022-08-02T12:17:51.534Z,27.11
2022-08-02T12:20:20.776Z,27.22
2022-08-02T12:22:50.079Z,27.24
2022-08-02T12:25:34.344Z,27.33
2022-08-02T12:28:05.105Z,27.42
2022-08-02T12:30:34.487Z,27.51
2022-08-02T12:33:03.790Z,27.64
2022-08-02T12:35:42.633Z,27.78
2022-08-02T12:38:14.711Z,27.79
2022-08-02T12:40:44.044Z,27.61
2022-08-02T12:43:13.501Z,27.67
2022-08-02T12:45:45.946Z,27.94
2022-08-02T12:48:19.346Z,27.87
2022-08-02T12:50:48.591Z,27.60
2022-08-02T12:53:17.982Z,27.42
2022-08-02T12:55:59.593Z,27.30
2022-08-02T12:58:32.403Z,27.18
2022-08-02T13:01:01.805Z,27.08
2022-08-02T13:04:10.900Z,27.00
2022-08-02T13:06:41.287Z,26.95
2022-08-02T13:09:12.353Z,26.66
2022-08-02T13:11:43.328Z,26.56
2022-08-02T13:14:14.171Z,26.51
2022-08-02T13:16:44.100Z,26.42
2022-08-02T13:19:16.153Z,26.44
2022-08-02T13:22:01.486Z,26.55
2022-08-02T13:24:39.621Z,26.63
2022-08-02T13:27:22.228Z,26.64
2022-08-02T13:29:51.590Z,26.63
2022-08-02T13:32:20.926Z,26.62
2022-08-02T13:34:50.924Z,26.59
2022-08-02T13:37:20.379Z,26.59
2022-08-02T13:40:11.956Z,26.47
2022-08-02T13:42:39.159Z,26.37
2022-08-02T13:45:13.757Z,26.35
2022-08-02T13:48:04.665Z,26.38
2022-08-02T13:50:34.110Z,26.45
2022-08-02T13:53:04.924Z,26.45
2022-08-02T13:55:34.168Z,26.45
2022-08-02T13:58:05.475Z,26.48
2022-08-02T14:00:36.361Z,26.52
2022-08-02T14:03:06.235Z,26.62
2022-08-02T14:05:47.243Z,26.68
2022-08-02T14:08:18.450Z,26.74
2022-08-02T14:10:47.714Z,26.80
2022-08-02T14:13:17.047Z,26.80
2022-08-02T14:15:46.227Z,26.77
2022-08-02T14:18:16.441Z,26.84
2022-08-02T14:20:45.769Z,26.97
2022-08-02T14:23:14.853Z,27.05
2022-08-02T14:25:44.243Z,27.17
2022-08-02T14:28:13.423Z,27.26
2022-08-02T14:30:42.504Z,27.33
2022-08-02T14:33:12.375Z,27.36
2022-08-02T14:35:41.473Z,27.35
2022-08-02T14:38:10.773Z,27.34
2022-08-02T14:40:39.999Z,27.33
2022-08-02T14:43:09.612Z,27.32
2022-08-02T14:45:41.009Z,27.35
2022-08-02T14:48:11.069Z,27.37
2022-08-02T14:50:40.408Z,27.73
2022-08-02T14:53:12.834Z,28.17
2022-08-02T14:55:43.040Z,28.21
2022-08-02T14:58:12.823Z,28.73
2022-08-02T15:00:43.844Z,29.79
2022-08-02T15:03:13.923Z,31.35
2022-08-02T15:05:43.779Z,31.06
2022-08-02T15:08:16.955Z,30.31
2022-08-02T15:10:46.934Z,29.92
2022-08-02T15:13:16.232Z,29.50
2022-08-02T15:15:45.420Z,29.12
2022-08-02T15:18:15.331Z,29.26
2022-08-02T15:20:57.256Z,30.28
2022-08-02T15:23:37.406Z,30.64
2022-08-02T15:26:08.294Z,33.21
2022-08-02T15:28:39.187Z,34.29
2022-08-02T15:31:08.413Z,34.70
2022-08-02T15:33:37.659Z,33.44
2022-08-02T15:36:06.882Z,33.69
2022-08-02T15:38:36.317Z,35.85
2022-08-02T15:41:05.690Z,37.30
2022-08-02T15:43:38.146Z,38.65
2022-08-02T15:46:24.260Z,39.93
2022-08-02T15:49:00.856Z,40.51
2022-08-02T15:51:30.584Z,41.22
2022-08-02T15:53:59.713Z,42.22
2022-08-02T15:56:28.871Z,43.22
2022-08-02T15:58:58.686Z,43.94
2022-08-02T16:01:37.269Z,43.93
2022-08-02T16:04:08.076Z,44.45
2022-08-02T16:06:37.480Z,45.24
2022-08-02T16:09:06.783Z,46.09
2022-08-02T16:11:35.980Z,46.73
2022-08-02T16:14:05.201Z,47.13
2022-08-02T16:16:34.477Z,47.28
2022-08-02T16:19:46.499Z,47.61
2022-08-02T16:21:53.762Z,47.88
2022-08-02T16:24:22.914Z,47.75
2022-08-02T16:26:52.072Z,47.48
2022-08-02T16:29:21.233Z,47.40
2022-08-02T16:31:50.445Z,47.65
2022-08-02T16:34:19.665Z,47.78
2022-08-02T16:36:48.821Z,48.20
2022-08-02T16:39:18.032Z,48.12
2022-08-02T16:41:52.973Z,47.99
2022-08-02T16:44:26.823Z,47.27
2022-08-02T16:47:00.974Z,46.27
2022-08-02T16:50:04.042Z,45.41
2022-08-02T16:52:21.822Z,44.61
2022-08-02T16:54:51.066Z,44.40
2022-08-02T16:57:20.398Z,44.38
2022-08-02T16:59:57.921Z,43.86
2022-08-02T17:02:28.382Z,42.93
2022-08-02T17:04:58.136Z,42.47
2022-08-02T17:08:07.840Z,41.90
2022-08-02T17:10:18.756Z,41.08
2022-08-02T17:12:51.254Z,40.50
2022-08-02T17:16:08.100Z,40.00
2022-08-02T17:18:14.865Z,39.51
2022-08-02T17:20:45.739Z,39.16
2022-08-02T17:23:16.229Z,38.86
2022-08-02T17:25:52.336Z,38.43
2022-08-02T17:28:31.313Z,37.95
2022-08-02T17:31:02.407Z,37.29
2022-08-02T17:33:31.728Z,36.57
2022-08-02T17:36:01.989Z,35.83
2022-08-02T17:38:32.525Z,35.16
2022-08-02T17:41:04.216Z,34.51
2022-08-02T17:43:36.410Z,33.58
2022-08-02T17:46:10.843Z,32.61
2022-08-02T17:48:57.945Z,31.76
2022-08-02T17:52:16.133Z,30.90
2022-08-02T17:54:19.030Z,30.21
2022-08-02T17:56:48.321Z,29.57
2022-08-02T17:59:20.140Z,28.85
2022-08-02T18:01:52.936Z,28.30
2022-08-02T18:04:27.009Z,27.83
2022-08-02T18:06:57.731Z,27.38
2022-08-02T18:09:28.533Z,27.03
2022-08-02T18:11:59.634Z,26.65
2022-08-02T18:14:28.864Z,26.27
2022-08-02T18:16:59.624Z,25.96
2022-08-02T18:19:42.563Z,25.55
2022-08-02T18:22:13.324Z,25.12
2022-08-02T18:24:45.342Z,24.64
2022-08-02T18:27:14.528Z,24.27
2022-08-02T18:29:46.067Z,24.02
2022-08-02T18:32:17.285Z,23.79
2022-08-02T18:35:06.616Z,23.50
2022-08-02T18:37:42.895Z,23.27
2022-08-02T18:40:15.583Z,23.02
2022-08-02T18:42:48.856Z,22.79
2022-08-02T18:48:08.631Z,22.39
2022-08-02T18:50:37.894Z,22.20
2022-08-02T18:53:07.303Z,21.99
2022-08-02T18:56:03.572Z,21.76
2022-08-02T18:58:26.154Z,21.52
2022-08-02T19:00:59.110Z,21.26
2022-08-02T19:03:29.534Z,20.99
2022-08-02T19:06:07.270Z,20.80
2022-08-02T19:08:36.726Z,20.68
2022-08-02T19:11:06.283Z,20.55
2022-08-02T19:13:40.747Z,20.44
2022-08-02T19:16:13.760Z,20.36
2022-08-02T19:18:44.307Z,20.27
2022-08-02T19:21:16.493Z,20.15
2022-08-02T19:24:06.424Z,19.99
2022-08-02T19:26:39.842Z,19.87
2022-08-02T19:29:10.003Z,19.76
2022-08-02T19:31:59.878Z,19.65
2022-08-02T19:34:31.685Z,19.52
2022-08-02T19:37:01.233Z,19.40
2022-08-02T19:39:32.989Z,19.33
2022-08-02T19:42:08.973Z,19.26
2022-08-02T19:44:43.225Z,19.19
2022-08-02T19:47:19.246Z,19.15
2022-08-02T19:49:49.294Z,19.09
2022-08-02T19:56:01.624Z,18.96
2022-08-02T19:58:03.591Z,18.88
2022-08-02T20:00:34.097Z,18.85
2022-08-02T20:03:04.229Z,18.82
2022-08-02T20:05:35.947Z,18.77
2022-08-02T20:08:05.837Z,18.71
2022-08-02T20:10:37.947Z,18.64
2022-08-02T20:13:08.192Z,18.57
2022-08-02T20:15:51.854Z,18.52
2022-08-02T20:18:29.983Z,18.48
2022-08-02T20:21:01.555Z,18.43
2022-08-02T20:23:34.001Z,18.38
2022-08-02T20:26:05.788Z,18.35
2022-08-02T20:28:39.479Z,18.32
2022-08-02T20:31:10.857Z,18.28
2022-08-02T20:33:55.858Z,18.25
2022-08-02T20:36:27.225Z,18.18
2022-08-02T20:38:58.092Z,18.10
2022-08-02T20:41:36.936Z,18.03
2022-08-02T20:44:15.970Z,17.97
2022-08-02T20:46:59.564Z,17.93
2022-08-02T20:49:41.097Z,17.88
2022-08-02T20:52:24.125Z,17.84
2022-08-02T20:54:54.044Z,17.81
2022-08-02T20:57:48.993Z,17.75
2022-08-02T21:00:12.651Z,17.68
2022-08-02T21:02:41.994Z,17.63
2022-08-02T21:05:17.403Z,17.59
2022-08-02T21:07:54.879Z,17.57
2022-08-02T21:10:24.412Z,17.54
2022-08-02T21:12:54.801Z,17.49
2022-08-02T21:15:25.739Z,17.43
2022-08-02T21:18:02.687Z,17.38
2022-08-02T21:20:34.229Z,17.33
2022-08-02T21:23:04.067Z,17.30
2022-08-02T21:25:50.595Z,17.28
2022-08-02T21:28:22.953Z,17.27
2022-08-02T21:30:52.655Z,17.25
2022-08-02T21:33:23.533Z,17.22
2022-08-02T21:35:54.436Z,17.22
2022-08-02T21:38:36.580Z,17.18
2022-08-02T21:41:12.024Z,17.15
2022-08-02T21:43:43.837Z,17.11
2022-08-02T21:46:14.606Z,17.06
2022-08-02T21:48:44.568Z,17.03
2022-08-02T21:51:16.052Z,17.00
2022-08-02T21:54:17.390Z,16.96
2022-08-02T21:56:34.981Z,16.93
2022-08-02T22:01:56.919Z,16.88
2022-08-02T22:04:47.783Z,16.84
2022-08-02T22:07:17.801Z,16.82
2022-08-02T22:09:55.348Z,16.77
2022-08-02T22:12:25.946Z,16.73
2022-08-02T22:14:56.706Z,16.69
2022-08-02T22:17:46.838Z,16.67
2022-08-02T22:20:20.011Z,16.65
2022-08-02T22:22:52.689Z,16.65
2022-08-02T22:25:36.599Z,16.67
2022-08-02T22:28:37.092Z,16.66
2022-08-02T22:30:58.273Z,16.62
2022-08-02T22:34:01.270Z,16.57
2022-08-02T22:36:32.221Z,16.52
2022-08-02T22:39:01.796Z,16.49
2022-08-02T22:42:01.081Z,16.46
2022-08-02T22:44:20.681Z,16.41
2022-08-02T22:46:50.513Z,16.40
2022-08-02T22:49:38.212Z,16.38
2022-08-02T22:52:10.702Z,16.35
2022-08-02T22:54:40.707Z,16.33
2022-08-02T22:57:13.193Z,16.32
2022-08-02T22:59:00.692Z,22.58
2022-08-02T22:59:03.936Z,16.93
2022-08-02T22:59:08.489Z,19.04
2022-08-02T22:59:42.462Z,16.30
2022-08-02T23:02:11.794Z,16.27
2022-08-02T23:04:40.971Z,16.25
2022-08-02T23:07:10.273Z,16.20
2022-08-02T23:09:39.478Z,16.23
2022-08-02T23:12:08.797Z,16.21
2022-08-02T23:14:38.133Z,16.18
2022-08-02T23:17:25.188Z,16.15
2022-08-02T23:19:54.478Z,16.12
2022-08-02T23:22:29.229Z,16.10
2022-08-02T23:25:00.304Z,16.09
2022-08-02T23:27:29.560Z,16.06
2022-08-02T23:29:58.743Z,16.06
2022-08-02T23:32:27.937Z,16.05
2022-08-02T23:34:57.170Z,16.03
2022-08-02T23:37:26.434Z,16.00
2022-08-02T23:39:55.654Z,16.00
2022-08-02T23:42:25.539Z,15.99
2022-08-02T23:44:54.802Z,15.97
2022-08-02T23:47:24.133Z,15.95
2022-08-02T23:49:53.404Z,15.92
2022-08-02T23:52:25.245Z,15.88
2022-08-02T23:54:54.565Z,15.85
2022-08-02T23:57:24.046Z,15.83
2022-08-02T23:59:53.393Z,15.81
